Time;durP1;ratioP1;P1;durP2;ratioP2;P2;SDS_P1;SDS_P2;PMS_P1;PMS_P2;Temp;Humidity;BMP_temperature;BMP_pressure;BME280_temperature;BME280_humidity;BME280_pressure;Samples;Min_cycle;Max_cycle;Signal;HPM_P1;HPM_P2
2023/09/28 00:00:43;;;;;;;2.47;1.80;;;;;;;15.75;81.32;99535.00;328209;29;15889;-88
2023/09/28 00:00:58;;;;;;;4.78;1.90;;;;;;;15.74;81.13;99540.31;330273;29;17043;-88
2023/09/28 00:01:12;;;;;;;4.57;1.70;;;;;;;15.72;80.77;99529.94;331970;29;16753;-89
2023/09/28 00:01:28;;;;;;;2.50;1.58;;;;;;;15.72;81.12;99536.91;330936;29;17681;-88
2023/09/28 00:01:41;;;;;;;2.47;1.70;;;;;;;15.72;81.12;99534.28;329509;29;16749;-88
2023/09/28 00:01:53;;;;;;;2.20;1.60;;;;;;;15.73;81.20;99533.38;333062;29;4511;-89
2023/09/28 00:02:05;;;;;;;2.00;1.50;;;;;;;15.72;81.35;99537.78;330265;29;6667;-88
2023/09/28 00:02:18;;;;;;;2.53;1.70;;;;;;;15.72;81.07;99534.28;334184;29;4582;-88
2023/09/28 00:02:31;;;;;;;2.38;1.67;;;;;;;15.71;81.00;99543.06;336049;29;4475;-89
2023/09/28 00:02:47;;;;;;;2.47;1.65;;;;;;;15.71;80.90;99532.59;333551;28;16859;-88
2023/09/28 00:03:00;;;;;;;2.63;1.70;;;;;;;15.70;80.96;99528.28;330881;29;17502;-88
2023/09/28 00:03:13;;;;;;;2.20;1.60;;;;;;;15.70;81.08;99531.75;328917;28;17111;-88
2023/09/28 00:03:26;;;;;;;2.00;1.67;;;;;;;15.69;81.05;99539.69;332881;29;4717;-88
2023/09/28 00:03:39;;;;;;;1.90;1.50;;;;;;;15.69;81.01;99529.22;330518;29;17974;-88
2023/09/28 00:03:51;;;;;;;1.60;1.40;;;;;;;15.70;81.22;99538.78;332364;29;8347;-88
2023/09/28 00:04:06;;;;;;;1.58;1.40;;;;;;;15.69;80.88;99537.91;330562;29;18203;-89
2023/09/28 00:04:19;;;;;;;1.75;1.45;;;;;;;15.64;81.63;99537.34;328754;29;18390;-89
2023/09/28 00:04:32;;;;;;;2.20;1.65;;;;;;;15.62;81.68;99533.13;332082;29;10584;-89
2023/09/28 00:04:44;;;;;;;2.53;1.75;;;;;;;15.60;81.77;99534.97;329606;29;17477;-89
2023/09/28 00:04:57;;;;;;;3.00;1.80;;;;;;;15.60;81.71;99533.19;326297;29;19080;-89
2023/09/28 00:05:10;;;;;;;3.40;1.80;;;;;;;15.60;81.64;99535.81;332269;29;4666;-89
2023/09/28 00:05:23;;;;;;;2.63;1.73;;;;;;;15.61;81.50;99532.25;329971;29;16851;-88
2023/09/28 00:05:35;;;;;;;2.47;1.75;;;;;;;15.62;81.50;99533.13;328581;29;4621;-88
2023/09/28 00:05:47;;;;;;;2.50;1.73;;;;;;;15.63;81.56;99537.41;332125;29;4567;-89
2023/09/28 00:06:01;;;;;;;2.08;1.65;;;;;;;15.64;81.62;99536.50;331539;29;4556;-88
2023/09/28 00:06:13;;;;;;;2.28;1.70;;;;;;;15.62;81.81;99535.75;328922;29;7578;-88
2023/09/28 00:06:25;;;;;;;2.60;1.77;;;;;;;15.63;81.75;99526.94;330532;29;4547;-88
2023/09/28 00:06:37;;;;;;;3.33;1.80;;;;;;;15.64;81.66;99533.88;329429;29;17818;-88
2023/09/28 00:06:49;;;;;;;3.28;1.90;;;;;;;15.65;81.06;99533.78;333144;29;4498;-88
2023/09/28 00:07:01;;;;;;;2.88;1.80;;;;;;;15.63;81.43;99537.41;333681;29;4516;-88
2023/09/28 00:07:14;;;;;;;2.50;1.58;;;;;;;15.64;81.34;99541.75;330190;29;16573;-88
2023/09/28 00:07:25;;;;;;;3.97;1.52;;;;;;;15.63;81.51;99535.63;333700;29;4697;-88
2023/09/28 00:07:39;;;;;;;3.95;1.58;;;;;;;15.65;81.42;99538.19;328391;29;18876;-88
2023/09/28 00:07:51;;;;;;;2.65;1.50;;;;;;;15.65;81.39;99533.78;333541;29;4504;-88
2023/09/28 00:08:03;;;;;;;2.58;1.40;;;;;;;15.67;81.09;99537.16;330963;29;17091;-87
2023/09/28 00:08:15;;;;;;;2.28;1.30;;;;;;;15.71;80.99;99532.59;332891;29;4530;-89
2023/09/28 00:08:27;;;;;;;2.70;1.48;;;;;;;15.70;80.98;99541.41;332867;29;9162;-90
2023/09/28 00:08:41;;;;;;;2.42;1.50;;;;;;;15.72;80.75;99544.78;331415;29;17129;-89
2023/09/28 00:08:53;;;;;;;2.17;1.50;;;;;;;15.70;81.17;99537.00;331885;29;16879;-89
2023/09/28 00:09:05;;;;;;;1.90;1.40;;;;;;;15.73;81.04;99549.09;334766;29;4519;-88
2023/09/28 00:09:17;;;;;;;2.33;1.42;;;;;;;15.72;80.95;99547.41;334998;29;4471;-89
2023/09/28 00:09:29;;;;;;;2.00;1.40;;;;;;;15.72;80.97;99544.78;330837;29;17938;-88
2023/09/28 00:09:42;;;;;;;2.08;1.48;;;;;;;15.71;80.91;99545.69;333328;29;4566;-89
2023/09/28 00:09:54;;;;;;;1.58;1.33;;;;;;;15.72;81.01;99536.91;329350;29;4535;-88
2023/09/28 00:10:09;;;;;;;1.70;1.38;;;;;;;15.72;80.93;99548.28;332260;29;4495;-88
2023/09/28 00:10:21;;;;;;;1.58;1.45;;;;;;;15.73;80.78;99541.25;330019;29;18762;-89
2023/09/28 00:10:34;;;;;;;2.42;1.60;;;;;;;15.73;80.52;99549.94;329145;29;17973;-88
2023/09/28 00:10:46;;;;;;;2.58;1.65;;;;;;;15.71;80.79;99543.91;333663;29;4658;-89
2023/09/28 00:10:59;;;;;;;2.10;1.55;;;;;;;15.69;80.71;99544.94;331878;29;10248;-89
2023/09/28 00:11:11;;;;;;;2.13;1.60;;;;;;;15.68;80.80;99543.25;334438;28;4519;-88
2023/09/28 00:11:23;;;;;;;2.20;1.67;;;;;;;15.66;81.15;99540.72;330131;28;4848;-88
2023/09/28 00:11:35;;;;;;;2.17;1.67;;;;;;;15.62;81.24;99543.59;328764;29;17852;-89
2023/09/28 00:11:47;;;;;;;1.98;1.55;;;;;;;15.59;81.38;99544.59;330919;29;4514;-88
2023/09/28 00:11:59;;;;;;;1.95;1.55;;;;;;;15.60;81.48;99545.47;329790;29;8661;-88
2023/09/28 00:12:11;;;;;;;2.05;1.60;;;;;;;15.60;81.33;99548.09;333374;29;4476;-88
2023/09/28 00:12:23;;;;;;;2.08;1.45;;;;;;;15.60;81.49;99542.84;333217;29;4584;-88
2023/09/28 00:12:35;;;;;;;2.10;1.40;;;;;;;15.61;81.46;99547.97;329626;29;17690;-88
2023/09/28 00:12:49;;;;;;;1.95;1.40;;;;;;;15.61;81.48;99547.13;331310;29;4612;-89
2023/09/28 00:13:02;;;;;;;1.70;1.27;;;;;;;15.60;81.91;99546.31;329389;29;18010;-88
2023/09/28 00:13:14;;;;;;;2.00;1.40;;;;;;;15.60;81.74;99548.09;331327;29;8811;-88
2023/09/28 00:13:26;;;;;;;2.05;1.55;;;;;;;15.61;81.51;99547.13;329886;29;15632;-88
2023/09/28 00:13:38;;;;;;;1.97;1.60;;;;;;;15.62;81.28;99554.09;333331;29;4526;-88
2023/09/28 00:13:50;;;;;;;2.10;1.50;;;;;;;15.64;81.24;99546.97;328032;29;10343;-88
2023/09/28 00:14:03;;;;;;;2.63;1.60;;;;;;;15.63;81.26;99547.91;331756;29;4575;-88
2023/09/28 00:14:15;;;;;;;3.00;1.80;;;;;;;15.64;81.61;99549.59;331913;29;4487;-88
2023/09/28 00:14:28;;;;;;;2.65;1.67;;;;;;;15.65;81.18;99548.66;327686;29;17874;-88
2023/09/28 00:14:40;;;;;;;1.90;1.40;;;;;;;15.64;81.30;99549.59;324154;29;4880;-89
2023/09/28 00:14:53;;;;;;;1.90;1.48;;;;;;;15.64;81.13;99552.22;332296;29;4481;-88
2023/09/28 00:15:07;;;;;;;3.30;1.55;;;;;;;15.65;80.89;99553.91;329544;29;18961;-88
2023/09/28 00:15:20;;;;;;;3.22;1.45;;;;;;;15.67;80.81;99549.41;330496;29;4571;-89
2023/09/28 00:15:32;;;;;;;2.55;1.40;;;;;;;15.65;81.27;99556.50;327630;29;19187;-89
2023/09/28 00:15:46;;;;;;;2.10;1.50;;;;;;;15.63;81.20;99547.91;331846;29;4616;-88
2023/09/28 00:15:58;;;;;;;2.03;1.42;;;;;;;15.64;81.26;99553.06;327558;29;17643;-89
2023/09/28 00:16:10;;;;;;;1.90;1.30;;;;;;;15.64;81.27;99549.59;330913;29;4533;-88
2023/09/28 00:16:22;;;;;;;1.58;1.25;;;;;;;15.65;81.56;99548.66;328408;29;16492;-89
2023/09/28 00:16:35;;;;;;;1.70;1.30;;;;;;;15.65;81.67;99554.72;332022;29;4536;-88
2023/09/28 00:16:47;;;;;;;2.60;1.40;;;;;;;15.65;81.65;99553.91;328310;29;18331;-89
2023/09/28 00:17:01;;;;;;;2.53;1.42;;;;;;;15.62;82.00;99548.84;330932;29;4897;-89
2023/09/28 00:17:13;;;;;;;2.17;1.60;;;;;;;15.62;82.06;99548.84;324834;29;18839;-89
2023/09/28 00:17:26;;;;;;;2.30;1.70;;;;;;;15.62;82.05;99549.69;333426;29;4477;-89
2023/09/28 00:17:39;;;;;;;2.08;1.42;;;;;;;15.66;82.01;99555.59;329840;29;18190;-89
2023/09/28 00:17:52;;;;;;;1.73;1.33;;;;;;;15.67;81.31;99549.41;330561;29;16108;-88
2023/09/28 00:18:04;;;;;;;1.85;1.40;;;;;;;15.69;81.11;99555.41;332389;29;4540;-89
2023/09/28 00:18:16;;;;;;;1.63;1.25;;;;;;;15.70;81.23;99555.34;329115;29;11314;-89
2023/09/28 00:18:29;;;;;;;1.40;1.10;;;;;;;15.70;80.84;99551.88;333787;29;4693;-89
2023/09/28 00:18:41;;;;;;;2.05;1.05;;;;;;;15.71;80.70;99553.56;332184;29;4646;-89
2023/09/28 00:18:55;;;;;;;2.28;1.23;;;;;;;15.73;80.53;99562.22;330328;29;17968;-89
2023/09/28 00:19:07;;;;;;;1.88;1.30;;;;;;;15.72;80.51;99556.13;330791;29;10974;-89
2023/09/28 00:19:19;;;;;;;2.40;1.38;;;;;;;15.70;80.43;99557.13;333371;29;5170;-89
2023/09/28 00:19:31;;;;;;;2.30;1.42;;;;;;;15.66;80.74;99561.69;332073;29;4536;-88
2023/09/28 00:19:43;;;;;;;2.97;1.70;;;;;;;15.63;80.30;99555.75;328126;29;17894;-89
2023/09/28 00:19:55;;;;;;;2.50;1.70;;;;;;;15.62;80.74;99559.31;332280;29;4545;-88
2023/09/28 00:20:18;;;;;;;2.50;1.75;;;;;;;15.57;80.39;99563.03;333653;29;4518;-88
2023/09/28 00:20:30;;;;;;;1.98;1.52;;;;;;;15.54;80.85;99560.56;330179;29;16727;-88
2023/09/28 00:20:42;;;;;;;2.20;1.50;;;;;;;15.54;80.71;99560.56;332391;29;4516;-88
2023/09/28 00:20:55;;;;;;;2.20;1.50;;;;;;;15.50;80.76;99561.66;331189;29;17509;-89
2023/09/28 00:21:07;;;;;;;2.10;1.48;;;;;;;15.45;81.01;99563.69;332438;29;4511;-89
2023/09/28 00:21:19;;;;;;;2.50;1.60;;;;;;;15.42;81.18;99565.66;330062;29;17790;-89
2023/09/28 00:21:31;;;;;;;3.00;1.52;;;;;;;15.35;81.47;99565.97;332322;29;4537;-89
2023/09/28 00:21:43;;;;;;;3.03;1.45;;;;;;;15.34;81.27;99571.28;328678;29;18014;-89
2023/09/28 00:21:55;;;;;;;2.50;1.50;;;;;;;15.32;81.54;99567.91;329470;29;17898;-88
2023/09/28 00:22:07;;;;;;;2.40;1.60;;;;;;;15.32;81.42;99567.91;331331;29;4495;-89
2023/09/28 00:22:19;;;;;;;2.05;1.48;;;;;;;15.30;81.71;99569.75;328827;29;17025;-88
2023/09/28 00:22:31;;;;;;;2.35;1.50;;;;;;;15.29;81.88;99562.81;332130;29;4536;-88
2023/09/28 00:22:47;;;;;;;2.20;1.50;;;;;;;15.30;81.88;99569.75;330733;29;17026;-89
2023/09/28 00:23:00;;;;;;;1.65;1.42;;;;;;;15.30;81.67;99567.16;330701;29;17828;-88
2023/09/28 00:23:12;;;;;;;1.88;1.60;;;;;;;15.32;82.00;99558.28;334458;29;4584;-88
2023/09/28 00:23:24;;;;;;;2.13;1.73;;;;;;;15.33;81.62;99559.97;330890;29;4697;-88
2023/09/28 00:23:36;;;;;;;2.22;1.80;;;;;;;15.33;81.99;99564.34;332561;29;16943;-88
2023/09/28 00:23:49;;;;;;;2.78;1.90;;;;;;;15.35;82.10;99565.09;332130;29;4580;-88
2023/09/28 00:24:02;;;;;;;2.63;1.65;;;;;;;15.38;81.70;99562.34;325869;29;18260;-89
2023/09/28 00:24:14;;;;;;;1.92;1.52;;;;;;;15.40;81.56;99562.25;329419;29;17672;-89
2023/09/28 00:24:26;;;;;;;2.00;1.50;;;;;;;15.39;81.76;99558.78;331339;29;5040;-89
2023/09/28 00:24:38;;;;;;;2.17;1.70;;;;;;;15.38;81.81;99562.34;329646;29;5005;-88
2023/09/28 00:24:50;;;;;;;2.45;1.63;;;;;;;15.40;81.73;99565.72;328322;29;17764;-89
2023/09/28 00:25:10;;;;;;;2.28;1.55;;;;;;;15.42;81.81;99563.03;331139;29;4550;-89
2023/09/28 00:25:23;;;;;;;2.08;1.50;;;;;;;15.38;81.94;99557.94;326437;29;16013;-89
2023/09/28 00:25:35;;;;;;;2.17;1.50;;;;;;;15.39;81.89;99564.00;327620;29;16390;-89
2023/09/28 00:25:48;;;;;;;2.00;1.45;;;;;;;15.40;81.85;99565.72;330942;29;4701;-89
2023/09/28 00:26:00;;;;;;;2.10;1.55;;;;;;;15.36;82.19;99570.28;329946;29;18158;-88
2023/09/28 00:26:12;;;;;;;2.42;1.80;;;;;;;15.34;82.11;99566.88;330817;29;17323;-88
2023/09/28 00:26:24;;;;;;;2.75;1.92;;;;;;;15.35;82.02;99565.97;332544;29;4653;-88
2023/09/28 00:26:37;;;;;;;2.08;1.60;;;;;;;15.37;81.86;99565.88;329317;29;18702;-88
2023/09/28 00:26:51;;;;;;;2.13;1.48;;;;;;;15.38;81.95;99563.19;331324;29;4507;-89
2023/09/28 00:27:04;;;;;;;2.50;1.50;;;;;;;15.39;81.72;99566.63;327473;29;17188;-88
2023/09/28 00:27:16;;;;;;;2.30;1.50;;;;;;;15.42;81.86;99558.63;328621;29;17672;-89
2023/09/28 00:27:28;;;;;;;1.80;1.35;;;;;;;15.43;81.91;99560.28;332025;29;4516;-87
2023/09/28 00:27:46;;;;;;;1.40;1.20;;;;;;;15.47;81.89;99564.44;330965;29;11151;-89
2023/09/28 00:27:58;;;;;;;1.45;1.23;;;;;;;15.46;81.82;99560.16;323147;29;17424;-88
2023/09/28 00:28:10;;;;;;;1.67;1.40;;;;;;;15.44;81.75;99562.00;332407;29;4451;-89
2023/09/28 00:28:22;;;;;;;2.00;1.53;;;;;;;15.45;81.79;99561.06;330743;29;18958;-88
2023/09/28 00:28:34;;;;;;;2.58;1.75;;;;;;;15.41;81.93;99564.78;332119;29;5016;-88
2023/09/28 00:28:46;;;;;;;2.50;1.75;;;;;;;15.39;82.52;99564.00;329503;29;17512;-89
2023/09/28 00:28:58;;;;;;;2.13;1.65;;;;;;;15.37;82.05;99571.09;332003;29;4778;-89
2023/09/28 00:29:11;;;;;;;1.95;1.50;;;;;;;15.40;82.27;99564.88;330995;29;4598;-89
2023/09/28 00:29:23;;;;;;;2.03;1.58;;;;;;;15.40;81.99;99565.72;328711;29;16549;-88
2023/09/28 00:29:35;;;;;;;2.50;1.60;;;;;;;15.42;82.03;99568.25;332875;29;4581;-89
2023/09/28 00:29:47;;;;;;;3.17;1.60;;;;;;;15.40;82.21;99568.34;330851;29;16606;-88
2023/09/28 00:29:59;;;;;;;2.90;1.50;;;;;;;15.42;82.27;99558.63;334690;29;4477;-88
2023/09/28 00:30:14;;;;;;;2.30;1.55;;;;;;;15.43;82.10;99564.69;332307;29;17785;-89
2023/09/28 00:30:26;;;;;;;2.10;1.45;;;;;;;15.44;82.08;99562.00;329714;29;7932;-88
2023/09/28 00:30:38;;;;;;;1.83;1.25;;;;;;;15.45;81.86;99566.28;331941;29;4761;-88
2023/09/28 00:30:52;;;;;;;1.90;1.42;;;;;;;15.48;82.11;99562.69;332535;29;4476;-88
2023/09/28 00:31:06;;;;;;;2.08;1.60;;;;;;;15.49;81.90;99560.00;330581;29;17516;-88
2023/09/28 00:31:18;;;;;;;2.20;1.70;;;;;;;15.50;82.04;99559.06;330071;29;16462;-89
2023/09/28 00:31:31;;;;;;;1.92;1.60;;;;;;;15.50;82.34;99559.06;334436;29;4465;-88
2023/09/28 00:31:44;;;;;;;2.20;1.70;;;;;;;15.49;82.50;99567.84;331131;29;7673;-89
2023/09/28 00:31:56;;;;;;;2.80;1.63;;;;;;;15.48;82.86;99563.53;331097;29;4523;-89
2023/09/28 00:32:08;;;;;;;2.92;1.58;;;;;;;15.49;82.71;99560.00;328436;29;16695;-88
2023/09/28 00:32:21;;;;;;;2.45;1.50;;;;;;;15.49;83.07;99565.22;331187;29;5191;-88
2023/09/28 00:32:33;;;;;;;1.95;1.50;;;;;;;15.49;83.08;99564.38;327382;29;4863;-89
2023/09/28 00:32:50;;;;;;;1.65;1.30;;;;;;;15.50;83.07;99555.59;332297;29;4513;-88
2023/09/28 00:33:02;;;;;;;1.75;1.33;;;;;;;15.51;82.77;99558.13;328913;29;17805;-89
2023/09/28 00:33:15;;;;;;;3.08;1.38;;;;;;;15.52;82.74;99565.06;329636;29;16191;-88
2023/09/28 00:33:27;;;;;;;2.92;1.40;;;;;;;15.54;82.51;99552.72;332230;29;4574;-89
2023/09/28 00:33:39;;;;;;;1.70;1.52;;;;;;;15.56;82.28;99560.50;329795;29;16556;-88
2023/09/28 00:33:51;;;;;;;1.77;1.58;;;;;;;15.55;82.58;99551.81;332313;29;5379;-89
2023/09/28 00:34:03;;;;;;;1.92;1.60;;;;;;;15.57;82.41;99563.03;328594;29;4530;-89
2023/09/28 00:34:15;;;;;;;1.63;1.48;;;;;;;15.58;82.10;99551.63;330904;29;16956;-88
2023/09/28 00:34:27;;;;;;;1.77;1.50;;;;;;;15.58;82.54;99559.47;332422;29;4533;-88
2023/09/28 00:34:39;;;;;;;2.45;1.50;;;;;;;15.59;82.54;99555.06;329271;29;18156;-89
2023/09/28 00:34:51;;;;;;;2.60;1.42;;;;;;;15.61;82.19;99557.63;333069;29;4500;-89
2023/09/28 00:35:05;;;;;;;2.90;1.58;;;;;;;15.61;82.27;99547.13;333800;29;4498;-88
2023/09/28 00:35:18;;;;;;;2.22;1.40;;;;;;;15.60;82.35;99555.94;329220;29;18905;-89
2023/09/28 00:35:30;;;;;;;1.67;1.20;;;;;;;15.59;82.40;99552.44;328743;29;5615;-87
2023/09/28 00:35:42;;;;;;;1.70;1.40;;;;;;;15.60;82.25;99553.31;330002;29;4827;-89
2023/09/28 00:35:54;;;;;;;1.65;1.40;;;;;;;15.60;82.35;99551.53;328640;29;11277;-88
2023/09/28 00:36:06;;;;;;;1.60;1.35;;;;;;;15.62;82.34;99554.91;332527;29;4472;-88
2023/09/28 00:36:18;;;;;;;1.63;1.33;;;;;;;15.62;82.46;99554.09;332028;29;4534;-88
2023/09/28 00:36:30;;;;;;;3.63;1.50;;;;;;;15.63;82.30;99555.75;327962;29;18182;-89
2023/09/28 00:36:42;;;;;;;5.28;1.55;;;;;;;15.60;82.32;99545.47;332321;29;4536;-89
2023/09/28 00:36:54;;;;;;;4.28;1.58;;;;;;;15.62;82.17;99551.47;332581;29;4545;-88
2023/09/28 00:37:07;;;;;;;2.28;1.63;;;;;;;15.61;82.37;99547.13;330414;29;18104;-88
2023/09/28 00:37:19;;;;;;;2.13;1.50;;;;;;;15.61;82.44;99547.13;333359;29;4476;-88
2023/09/28 00:37:32;;;;;;;2.25;1.60;;;;;;;15.60;82.92;99546.31;331152;29;8932;-88
2023/09/28 00:37:44;;;;;;;2.72;1.73;;;;;;;15.60;82.56;99548.09;334593;29;4488;-88
2023/09/28 00:37:56;;;;;;;2.85;1.60;;;;;;;15.58;82.46;99546.38;330584;29;18079;-89
2023/09/28 00:38:09;;;;;;;2.40;1.50;;;;;;;15.59;82.04;99549.84;333445;29;4490;-89
2023/09/28 00:38:21;;;;;;;2.42;1.50;;;;;;;15.62;82.35;99548.84;331227;28;16722;-90
2023/09/28 00:38:33;;;;;;;2.08;1.50;;;;;;;15.61;82.09;99547.13;333050;29;4502;-88
2023/09/28 00:38:47;;;;;;;2.33;1.50;;;;;;;15.62;82.07;99548.84;333642;29;4963;-89
2023/09/28 00:39:00;;;;;;;2.72;1.60;;;;;;;15.63;82.08;99545.28;331836;29;16678;-88
2023/09/28 00:39:13;;;;;;;2.38;1.60;;;;;;;15.64;82.22;99552.22;326646;29;17513;-89
2023/09/28 00:39:26;;;;;;;1.83;1.52;;;;;;;15.63;81.88;99547.91;331676;29;4536;-89
2023/09/28 00:39:38;;;;;;;1.83;1.60;;;;;;;15.66;81.77;99556.44;329411;29;18223;-88
2023/09/28 00:39:50;;;;;;;2.33;1.42;;;;;;;15.65;82.33;99553.91;332697;29;4559;-89
2023/09/28 00:40:15;;;;;;;2.33;1.40;;;;;;;15.67;82.26;99549.41;330664;29;18197;-89
2023/09/28 00:40:28;;;;;;;2.03;1.70;;;;;;;15.66;82.20;99545.13;328415;29;15874;-89
2023/09/28 00:40:41;;;;;;;2.45;1.73;;;;;;;15.67;82.04;99541.56;331446;29;4841;-87
2023/09/28 00:40:53;;;;;;;2.45;1.80;;;;;;;15.67;82.31;99541.56;328886;29;10310;-89
2023/09/28 00:41:05;;;;;;;2.50;1.60;;;;;;;15.68;81.86;99543.25;332281;29;4535;-89
2023/09/28 00:41:18;;;;;;;2.35;1.40;;;;;;;15.70;81.85;99546.63;328450;29;12569;-89
2023/09/28 00:41:30;;;;;;;2.17;1.40;;;;;;;15.70;81.82;99538.78;332849;29;4519;-88
2023/09/28 00:41:42;;;;;;;2.22;1.40;;;;;;;15.72;81.82;99539.53;330532;29;17758;-89
2023/09/28 00:41:54;;;;;;;2.28;1.38;;;;;;;15.71;81.97;99543.06;333267;29;4539;-88
2023/09/28 00:42:07;;;;;;;1.80;1.35;;;;;;;15.71;82.28;99543.06;333535;29;4513;-88
2023/09/28 00:42:19;;;;;;;2.70;1.52;;;;;;;15.72;82.25;99536.91;330702;29;17587;-89
2023/09/28 00:42:31;;;;;;;2.75;1.50;;;;;;;15.73;82.09;99551.72;333333;29;4605;-89
2023/09/28 00:42:44;;;;;;;1.83;1.40;;;;;;;15.72;81.97;99537.78;331653;29;18253;-89
2023/09/28 00:42:57;;;;;;;2.25;1.42;;;;;;;15.72;82.18;99542.16;333246;29;4668;-89
2023/09/28 00:43:10;;;;;;;2.58;1.50;;;;;;;15.73;81.93;99538.63;326242;29;17003;-89
2023/09/28 00:43:26;;;;;;;3.15;1.70;;;;;;;15.75;81.83;99547.25;332132;29;4512;-89
2023/09/28 00:43:38;;;;;;;2.83;1.40;;;;;;;15.75;81.90;99545.50;331053;29;16362;-89
2023/09/28 00:43:50;;;;;;;2.55;1.33;;;;;;;15.76;81.63;99541.09;329410;29;18272;-88
2023/09/28 00:44:03;;;;;;;1.85;1.33;;;;;;;15.78;81.59;99539.22;332010;29;4557;-89
2023/09/28 00:44:15;;;;;;;2.20;1.60;;;;;;;15.78;81.53;99541.84;329707;29;16492;-89
2023/09/28 00:44:27;;;;;;;2.67;1.80;;;;;;;15.79;81.39;99540.91;331858;29;4523;-89
2023/09/28 00:44:39;;;;;;;2.88;1.85;;;;;;;15.80;81.64;99537.38;331117;29;16388;-89
2023/09/28 00:44:51;;;;;;;2.55;1.88;;;;;;;15.78;81.45;99539.22;333625;29;4498;-88
2023/09/28 00:45:05;;;;;;;2.72;1.85;;;;;;;15.80;81.25;99539.16;330950;29;17844;-89
2023/09/28 00:45:19;;;;;;;2.25;1.70;;;;;;;15.78;81.23;99536.59;331574;29;4630;-88
2023/09/28 00:45:31;;;;;;;2.42;1.73;;;;;;;15.81;81.15;99541.66;328324;29;17048;-89
2023/09/28 00:45:44;;;;;;;2.55;1.60;;;;;;;15.81;81.03;99544.28;327514;29;5947;-88
2023/09/28 00:45:59;;;;;;;2.45;1.50;;;;;;;15.80;81.06;99540.00;330944;29;5392;-88
2023/09/28 00:46:15;;;;;;;2.17;1.50;;;;;;;15.80;81.46;99542.59;329579;29;16287;-89
2023/09/28 00:46:32;;;;;;;2.70;1.70;;;;;;;15.78;81.25;99541.84;329348;29;17520;-89
2023/09/28 00:46:44;;;;;;;2.42;1.60;;;;;;;15.76;81.32;99539.31;331838;29;18583;-89
2023/09/28 00:46:56;;;;;;;2.28;1.65;;;;;;;15.75;81.43;99539.38;334588;29;4542;-88
2023/09/28 00:47:10;;;;;;;1.95;1.65;;;;;;;15.77;81.46;99540.16;333494;29;4520;-88
2023/09/28 00:47:23;;;;;;;2.15;1.65;;;;;;;15.77;81.38;99540.16;323996;29;16571;-90
2023/09/28 00:47:39;;;;;;;2.10;1.55;;;;;;;15.78;81.06;99539.22;329448;29;16388;-89
2023/09/28 00:47:55;;;;;;;1.75;1.40;;;;;;;15.81;81.04;99536.41;328746;29;17480;-89
2023/09/28 00:48:09;;;;;;;2.42;1.52;;;;;;;15.82;80.89;99539.91;329702;29;18704;-88
2023/09/28 00:48:21;;;;;;;3.83;1.50;;;;;;;15.82;80.83;99540.75;329708;29;17993;-89
2023/09/28 00:48:41;;;;;;;4.20;1.50;;;;;;;15.84;80.87;99541.50;333208;29;4519;-88
2023/09/28 00:48:58;;;;;;;2.40;1.42;;;;;;;15.87;80.67;99540.47;329657;29;17539;-89
2023/09/28 00:49:16;;;;;;;2.50;1.50;;;;;;;15.86;80.77;99537.03;329363;29;17910;-89
2023/09/28 00:49:28;;;;;;;2.20;1.40;;;;;;;15.86;80.74;99541.44;330102;29;18108;-88
2023/09/28 00:49:42;;;;;;;1.80;1.40;;;;;;;15.88;80.55;99539.56;330742;29;18242;-89
2023/09/28 00:49:55;;;;;;;1.90;1.50;;;;;;;15.88;80.29;99529.91;334769;29;4523;-88
2023/09/28 00:50:17;;;;;;;2.45;1.50;;;;;;;15.89;80.54;99536.81;332062;28;18081;-89
2023/09/28 00:50:33;;;;;;;2.50;1.38;;;;;;;15.91;80.41;99532.34;331536;29;18567;-89
2023/09/28 00:50:45;;;;;;;1.85;1.50;;;;;;;15.91;80.46;99534.97;332109;29;17997;-89
2023/09/28 00:50:59;;;;;;;2.03;1.60;;;;;;;15.91;80.70;99539.38;329259;29;18365;-89
2023/09/28 00:51:11;;;;;;;2.33;1.55;;;;;;;15.90;80.48;99535.91;332477;28;18035;-89
2023/09/28 00:51:26;;;;;;;1.95;1.35;;;;;;;15.91;80.46;99529.72;335707;28;4605;-89
2023/09/28 00:51:39;;;;;;;1.50;1.30;;;;;;;15.91;80.46;99534.97;333157;28;18033;-89
2023/09/28 00:51:51;;;;;;;1.85;1.50;;;;;;;15.93;80.40;99533.09;335943;28;6953;-89
2023/09/28 00:52:07;;;;;;;2.17;1.52;;;;;;;15.91;80.59;99529.72;332764;28;17329;-89
2023/09/28 00:52:20;;;;;;;2.80;1.63;;;;;;;15.91;80.58;99534.97;332575;28;17243;-88
2023/09/28 00:52:33;;;;;;;2.75;1.70;;;;;;;15.91;80.72;99529.72;332159;29;5827;-89
2023/09/28 00:52:52;;;;;;;3.33;1.60;;;;;;;15.92;80.47;99531.44;334634;29;4516;-89
2023/09/28 00:53:08;;;;;;;3.17;1.60;;;;;;;15.92;80.68;99530.59;328063;29;17644;-88
2023/09/28 00:53:21;;;;;;;2.75;1.70;;;;;;;15.91;80.91;99521.84;328679;28;17949;-89
2023/09/28 00:53:33;;;;;;;2.75;1.70;;;;;;;15.92;81.11;99526.19;330857;29;16448;-88
2023/09/28 00:53:45;;;;;;;2.92;1.70;;;;;;;15.89;80.80;99523.72;331985;29;5637;-88
2023/09/28 00:54:00;;;;;;;2.20;1.60;;;;;;;15.91;80.89;99524.47;329594;29;18175;-88
2023/09/28 00:54:13;;;;;;;2.63;1.60;;;;;;;15.89;81.13;99526.34;328525;29;9061;-90
2023/09/28 00:54:27;;;;;;;2.50;1.67;;;;;;;15.89;81.18;99525.50;331413;29;4524;-88
2023/09/28 00:54:39;;;;;;;2.22;1.65;;;;;;;15.89;80.86;99523.72;329608;29;17848;-88
2023/09/28 00:54:52;;;;;;;3.03;1.60;;;;;;;15.89;81.46;99528.97;333034;29;4529;-89
2023/09/28 00:55:05;;;;;;;4.07;1.73;;;;;;;15.92;80.90;99533.22;328309;29;4499;-89
2023/09/28 00:55:19;;;;;;;4.07;1.90;;;;;;;15.92;80.80;99526.19;331580;29;4799;-88
2023/09/28 00:55:32;;;;;;;2.75;1.90;;;;;;;15.95;80.62;99530.41;329103;29;17928;-88
2023/09/28 00:55:45;;;;;;;2.20;1.63;;;;;;;15.96;80.42;99534.72;327862;29;17774;-89
2023/09/28 00:55:57;;;;;;;1.73;1.52;;;;;;;15.96;80.17;99527.69;332262;29;4738;-88
2023/09/28 00:56:09;;;;;;;1.60;1.50;;;;;;;15.96;80.34;99532.94;329834;29;4491;-88
2023/09/28 00:56:22;;;;;;;1.52;1.42;;;;;;;15.98;80.24;99535.47;330577;29;4836;-89
2023/09/28 00:56:36;;;;;;;1.50;1.35;;;;;;;15.97;80.18;99533.78;328474;29;10514;-89
2023/09/28 00:56:48;;;;;;;1.63;1.35;;;;;;;15.95;80.67;99533.84;328438;29;10048;-89
2023/09/28 00:57:01;;;;;;;2.33;1.48;;;;;;;15.94;80.56;99539.22;332238;29;4767;-88
2023/09/28 00:57:13;;;;;;;2.65;1.50;;;;;;;15.94;80.45;99537.44;329231;29;17134;-89
2023/09/28 00:57:26;;;;;;;2.97;1.70;;;;;;;15.94;80.30;99534.81;330531;29;4705;-88
2023/09/28 00:57:38;;;;;;;3.05;1.60;;;;;;;15.94;80.49;99539.22;329103;29;11667;-88
2023/09/28 00:57:51;;;;;;;2.40;1.40;;;;;;;15.93;80.48;99535.72;332351;29;4490;-88
2023/09/28 00:58:10;;;;;;;2.58;1.58;;;;;;;15.93;80.41;99533.09;327256;29;4996;-88
2023/09/28 00:58:23;;;;;;;2.80;1.48;;;;;;;15.94;80.46;99529.56;329160;29;17580;-89
2023/09/28 00:58:38;;;;;;;2.30;1.40;;;;;;;15.94;80.56;99533.97;329649;29;18108;-89
2023/09/28 00:58:53;;;;;;;2.10;1.50;;;;;;;15.92;80.62;99526.19;331195;29;4475;-89
2023/09/28 00:59:05;;;;;;;1.60;1.30;;;;;;;15.92;80.37;99534.03;329440;29;17876;-89
2023/09/28 00:59:18;;;;;;;2.63;1.40;;;;;;;15.91;80.62;99534.97;331576;29;4600;-89
2023/09/28 00:59:30;;;;;;;3.30;1.40;;;;;;;15.91;80.74;99532.34;328322;29;17756;-88
2023/09/28 00:59:42;;;;;;;2.17;1.30;;;;;;;15.91;80.42;99537.59;331117;29;4521;-89
2023/09/28 00:59:55;;;;;;;2.13;1.30;;;;;;;15.91;80.49;99534.13;328745;29;18065;-88
2023/09/28 01:00:27;;;;;;;2.13;1.38;;;;;;;15.90;80.43;99538.53;332877;29;4513;-89
2023/09/28 01:00:40;;;;;;;2.22;1.55;;;;;;;15.84;80.65;99544.13;331667;29;17312;-88
2023/09/28 01:00:52;;;;;;;1.98;1.55;;;;;;;15.78;81.13;99540.06;330324;29;16363;-88
2023/09/28 01:01:06;;;;;;;2.28;1.75;;;;;;;15.77;80.90;99532.28;332311;29;4719;-88
2023/09/28 01:01:18;;;;;;;2.40;1.60;;;;;;;15.78;80.81;99539.22;325782;29;18370;-89
2023/09/28 01:01:31;;;;;;;2.25;1.45;;;;;;;15.78;80.93;99541.84;331728;29;4602;-88
2023/09/28 01:01:43;;;;;;;2.25;1.58;;;;;;;15.76;81.11;99535.84;328215;29;17950;-89
2023/09/28 01:01:55;;;;;;;2.42;1.70;;;;;;;15.76;81.40;99530.59;332333;29;5305;-89
2023/09/28 01:02:08;;;;;;;2.20;1.65;;;;;;;15.76;81.42;99533.22;329243;29;18302;-89
2023/09/28 01:02:20;;;;;;;2.47;1.70;;;;;;;15.74;81.69;99533.31;331125;29;4588;-89
2023/09/28 01:02:32;;;;;;;2.58;1.63;;;;;;;15.76;81.32;99541.09;327788;29;4514;-89
2023/09/28 01:02:50;;;;;;;2.35;1.70;;;;;;;15.75;81.57;99534.13;331132;29;4685;-89
2023/09/28 01:03:08;;;;;;;2.50;1.90;;;;;;;15.76;82.05;99535.84;328199;29;17894;-89
2023/09/28 01:03:20;;;;;;;2.42;1.75;;;;;;;15.77;81.75;99535.78;328605;29;17576;-88